Lihue Airport Lihue US
ICAO: PHLI
IATA:
Category: Medium
Scheduled Services:

Elevation: 153 ft
TransAlt. 18000 ft.

Airport Communications:
ATIS:127.2
HONOLULU CNTR:126.5
CTAF:118.9
GND:121.9
HONOLULU:122.6
TWR:118.9

PHLI Zoom In..

If you have problems with the map follow the link
https://www.worldairports.se/pages/airport.php?
ICAO=PHLI

Runways:

(A) RW 03 length 6500 ft width 150 ft
---- / hdg 34

(B) RW 17 length 6500 ft width 150 ft
---- / hdg 169

(C) RW 21 length 6500 ft width 150 ft
---- / hdg 214

(D) RW 35 length 6500 ft width 150 ft
ILS 110.90 / hdg 349

Location; PHLI
Day. 20 / Time. 20.53 Zulu
* Altimeter: 29.99
* Temperature: 25° c. 77°f.
* Wind from: 100° Speed 07 kn.
Dewpoint: 19° c.
Visibility: 10 Statute Miles.
Clouds: Scattered 4400 ft.

PHLI 202053Z 10007KT 10SM SCT044 25/19 A2999 RMK AO2 SLP152 T02500194 51011


Wind From 100°
Speed 07 kn.

 
 
jpsmedia.com for Web Design worldairports.se 2019   terms of use